Time;durP1;ratioP1;P1;durP2;ratioP2;P2;SDS_P1;SDS_P2;PMS_P1;PMS_P2;Temp;Humidity;BMP_temperature;BMP_pressure;BME280_temperature;BME280_humidity;BME280_pressure;Samples;Min_cycle;Max_cycle;Signal;HPM_P1;HPM_P2
2023/10/27 00:00:22;;;;;;;1.30;0.80;;;;;;;10.70;100.00;99462.75;6249508;28;20523;-72
2023/10/27 00:03:43;;;;;;;2.73;1.77;;;;;;;10.70;100.00;99468.13;6243959;28;20235;-72
2023/10/27 00:07:05;;;;;;;2.87;1.80;;;;;;;10.70;100.00;99459.25;6242312;28;20240;-72
2023/10/27 00:10:28;;;;;;;2.43;2.23;;;;;;;10.66;100.00;99461.41;6242605;28;20224;-72
2023/10/27 00:13:49;;;;;;;2.40;1.73;;;;;;;10.67;100.00;99470.34;6240346;28;20232;-72
2023/10/27 00:17:10;;;;;;;2.23;2.03;;;;;;;10.74;100.00;99463.28;6244800;28;20235;-71
2023/10/27 00:20:31;;;;;;;1.60;1.50;;;;;;;10.77;100.00;99458.38;6240522;28;20223;-72
2023/10/27 00:23:53;;;;;;;1.80;1.13;;;;;;;10.78;100.00;99461.91;6247273;28;20227;-73
2023/10/27 00:27:14;;;;;;;2.40;1.37;;;;;;;10.67;100.00;99459.56;6230255;28;20317;-72
2023/10/27 00:30:35;;;;;;;1.30;1.20;;;;;;;10.72;100.00;99458.03;6243868;28;20228;-72
2023/10/27 00:33:56;;;;;;;2.40;1.50;;;;;;;10.60;100.00;99464.78;6242817;28;20236;-72
2023/10/27 00:37:17;;;;;;;1.00;1.00;;;;;;;10.45;100.00;99480.00;6245301;28;20228;-72
2023/10/27 00:40:39;;;;;;;1.80;1.10;;;;;;;10.49;100.00;99475.94;6243620;28;20227;-72
2023/10/27 00:44:00;;;;;;;2.70;1.23;;;;;;;10.55;100.00;99474.41;6246482;28;20228;-73
2023/10/27 00:47:21;;;;;;;2.93;2.13;;;;;;;10.60;100.00;99478.28;6245963;28;20821;-72
2023/10/27 00:50:43;;;;;;;4.47;1.80;;;;;;;10.69;100.00;99474.56;6247386;28;20681;-73
2023/10/27 00:54:05;;;;;;;1.50;1.40;;;;;;;10.65;100.00;99473.22;6243025;28;20236;-72
2023/10/27 00:57:28;;;;;;;1.43;1.33;;;;;;;10.71;100.00;99463.59;6243962;28;20232;-73
2023/10/27 01:00:51;;;;;;;1.60;1.40;;;;;;;10.73;100.00;99465.13;6242607;28;20224;-72
2023/10/27 01:04:12;;;;;;;1.00;1.00;;;;;;;10.59;100.00;99456.88;6241916;28;20633;-73
2023/10/27 01:07:32;;;;;;;1.60;1.50;;;;;;;10.68;100.00;99451.31;6243421;28;20314;-73
2023/10/27 01:10:55;;;;;;;2.77;1.63;;;;;;;10.77;100.00;99446.72;6245850;28;22868;-72
2023/10/27 01:14:18;;;;;;;1.80;1.70;;;;;;;10.73;100.00;99443.56;6242488;28;20300;-72
2023/10/27 01:17:39;;;;;;;1.50;1.40;;;;;;;10.67;100.00;99432.63;6252163;28;20251;-72
2023/10/27 01:21:00;;;;;;;1.90;1.03;;;;;;;10.74;100.00;99430.94;6243856;28;20228;-72
2023/10/27 01:24:23;;;;;;;1.70;1.57;;;;;;;10.67;100.00;99433.47;6233336;28;20307;-73
2023/10/27 01:27:45;;;;;;;2.13;1.93;;;;;;;10.68;100.00;99424.34;6245030;28;20272;-72
2023/10/27 01:31:06;;;;;;;1.57;1.30;;;;;;;10.67;100.00;99422.69;6244988;28;20232;-72
2023/10/27 01:34:27;;;;;;;1.40;1.30;;;;;;;10.58;100.00;99418.31;6239250;28;20223;-72
2023/10/27 01:37:47;;;;;;;1.27;1.17;;;;;;;10.49;100.00;99413.13;6244275;28;20219;-73
2023/10/27 01:41:10;;;;;;;1.50;1.40;;;;;;;10.52;100.00;99421.69;6246238;28;20231;-72
2023/10/27 01:44:31;;;;;;;1.90;1.20;;;;;;;10.55;100.00;99420.53;6244939;28;20505;-72
2023/10/27 01:47:52;;;;;;;1.40;1.30;;;;;;;10.59;100.00;99417.31;6243295;28;20228;-72
2023/10/27 01:51:12;;;;;;;0.70;0.70;;;;;;;10.57;100.00;99413.97;6246238;28;20223;-73
2023/10/27 01:54:33;;;;;;;0.83;0.83;;;;;;;10.52;100.00;99413.63;6239815;28;20235;-72
2023/10/27 01:57:56;;;;;;;1.60;1.50;;;;;;;10.61;100.00;99409.91;6244265;28;20557;-72
2023/10/27 02:01:18;;;;;;;2.13;1.30;;;;;;;10.65;100.00;99405.00;6242838;28;20220;-71
2023/10/27 02:04:39;;;;;;;1.07;1.03;;;;;;;10.59;100.00;99400.31;6248285;28;20669;-72
2023/10/27 02:08:02;;;;;;;1.20;1.10;;;;;;;10.64;100.00;99408.72;6239481;28;20330;-72
2023/10/27 02:11:23;;;;;;;2.60;1.70;;;;;;;10.59;100.00;99411.94;6247860;28;20483;-72
2023/10/27 02:14:45;;;;;;;1.07;1.00;;;;;;;10.49;100.00;99415.81;6246596;28;20239;-72
2023/10/27 02:18:06;;;;;;;1.27;1.17;;;;;;;10.45;100.00;99407.25;6250285;28;20227;-72
2023/10/27 02:21:27;;;;;;;2.57;1.93;;;;;;;10.51;100.00;99411.97;6249546;28;20270;-72
2023/10/27 02:24:48;;;;;;;0.87;0.87;;;;;;;10.42;100.00;99413.81;6247302;28;20231;-72
2023/10/27 02:28:09;;;;;;;1.97;1.77;;;;;;;10.43;100.00;99412.78;6249445;28;20233;-72
2023/10/27 02:31:31;;;;;;;1.13;1.03;;;;;;;10.32;100.00;99409.63;6251249;28;20315;-72
2023/10/27 02:34:52;;;;;;;1.50;1.40;;;;;;;10.43;100.00;99406.56;6248359;28;20469;-72
2023/10/27 02:38:13;;;;;;;2.43;1.10;;;;;;;10.51;100.00;99409.25;6250138;28;20229;-73
2023/10/27 02:41:35;;;;;;;0.87;0.80;;;;;;;10.47;100.00;99407.94;6254404;28;20250;-73
2023/10/27 02:44:56;;;;;;;1.93;1.03;;;;;;;10.44;100.00;99402.88;6247748;28;20243;-71
2023/10/27 02:48:18;;;;;;;1.80;1.13;;;;;;;10.52;100.00;99408.22;6256651;28;20358;-72
2023/10/27 02:51:39;;;;;;;0.90;0.70;;;;;;;10.41;100.00;99404.03;6248601;28;20219;-72
2023/10/27 02:55:00;;;;;;;2.40;1.73;;;;;;;10.41;100.00;99405.88;6252517;28;20228;-73
2023/10/27 02:58:21;;;;;;;1.73;1.60;;;;;;;10.49;100.00;99410.44;6247841;28;20223;-73
2023/10/27 03:01:44;;;;;;;1.43;1.20;;;;;;;10.51;100.00;99414.66;6248150;28;20606;-73
2023/10/27 03:05:08;;;;;;;0.90;0.90;;;;;;;10.45;100.00;99416.16;6249117;28;20239;-73
2023/10/27 03:08:29;;;;;;;0.80;0.80;;;;;;;10.35;100.00;99426.28;6245425;28;20229;-72
2023/10/27 03:11:49;;;;;;;1.17;1.00;;;;;;;10.33;100.00;99422.06;6238196;28;20268;-71
2023/10/27 03:15:10;;;;;;;0.60;0.60;;;;;;;10.32;100.00;99423.09;6246626;28;20232;-71
2023/10/27 03:18:32;;;;;;;1.47;0.83;;;;;;;10.32;100.00;99418.56;6242199;28;20627;-73
2023/10/27 03:21:54;;;;;;;1.57;1.40;;;;;;;10.12;100.00;99417.19;6240879;28;21066;-72
2023/10/27 03:25:15;;;;;;;1.47;1.27;;;;;;;10.17;100.00;99420.25;6252544;28;20596;-73
2023/10/27 03:28:36;;;;;;;2.40;2.30;;;;;;;10.24;100.00;99418.53;6253131;28;20318;-72
2023/10/27 03:31:57;;;;;;;1.07;1.03;;;;;;;10.16;100.00;99423.09;6250525;28;20228;-73
2023/10/27 03:35:18;;;;;;;1.97;1.47;;;;;;;10.16;100.00;99415.84;6249905;28;20235;-72
2023/10/27 03:38:41;;;;;;;1.27;1.10;;;;;;;10.20;100.00;99413.69;6251441;28;20231;-73
2023/10/27 03:42:02;;;;;;;1.83;1.60;;;;;;;10.27;100.00;99415.53;6235858;28;20231;-72
2023/10/27 03:45:22;;;;;;;2.20;1.40;;;;;;;10.27;100.00;99414.66;6235958;28;20235;-72
2023/10/27 03:48:44;;;;;;;1.17;1.00;;;;;;;10.27;100.00;99414.66;6245386;28;20228;-72
2023/10/27 03:52:05;;;;;;;2.40;1.47;;;;;;;10.22;100.00;99420.56;6247629;28;20240;-73
2023/10/27 03:55:27;;;;;;;1.07;0.93;;;;;;;10.14;100.00;99409.81;6245975;28;20273;-73
2023/10/27 03:58:48;;;;;;;1.10;1.10;;;;;;;10.16;100.00;99420.38;6250309;28;20236;-72
2023/10/27 04:02:09;;;;;;;2.37;1.43;;;;;;;10.03;100.00;99410.13;6237326;28;20244;-72
2023/10/27 04:05:30;;;;;;;1.60;1.50;;;;;;;10.10;100.00;99410.28;6246189;28;20227;-72
2023/10/27 04:08:51;;;;;;;4.17;2.23;;;;;;;10.10;100.00;99408.47;6243919;28;20232;-72
2023/10/27 04:12:13;;;;;;;1.87;1.10;;;;;;;10.13;100.00;99407.28;6247857;28;20236;-72
2023/10/27 04:15:34;;;;;;;1.87;1.40;;;;;;;10.15;100.00;99402.56;6238558;28;20240;-72
2023/10/27 04:18:55;;;;;;;2.17;1.30;;;;;;;10.07;100.00;99399.84;6235532;28;20227;-71
2023/10/27 04:22:16;;;;;;;2.10;1.40;;;;;;;10.15;100.00;99400.72;6248697;28;20228;-72
2023/10/27 04:25:39;;;;;;;2.67;1.27;;;;;;;10.14;100.00;99407.09;6249271;28;22203;-72
2023/10/27 04:29:01;;;;;;;1.47;1.10;;;;;;;10.17;100.00;99406.78;6240985;28;20227;-73
2023/10/27 04:32:21;;;;;;;1.10;1.00;;;;;;;10.10;100.00;99405.75;6244513;28;20232;-72
2023/10/27 04:35:43;;;;;;;2.10;1.60;;;;;;;10.00;100.00;99415.00;6251672;28;20600;-72
2023/10/27 04:39:04;;;;;;;0.93;0.93;;;;;;;10.09;100.00;99419.38;6247702;28;20243;-73
2023/10/27 04:42:25;;;;;;;1.13;1.10;;;;;;;10.79;100.00;99412.38;6244537;28;20223;-73
2023/10/27 04:45:48;;;;;;;1.40;1.23;;;;;;;10.92;100.00;99412.66;6247558;28;20231;-73
2023/10/27 04:49:09;;;;;;;2.60;1.97;;;;;;;10.68;100.00;99412.75;6243082;28;20235;-73
2023/10/27 04:52:30;;;;;;;3.47;1.30;;;;;;;10.87;100.00;99413.19;6241625;28;20335;-74
2023/10/27 04:55:51;;;;;;;1.50;1.40;;;;;;;10.96;100.00;99416.69;6240727;28;20231;-73
2023/10/27 04:59:12;;;;;;;1.30;1.20;;;;;;;10.76;100.00;99415.41;6246126;28;20236;-73
2023/10/27 05:02:34;;;;;;;2.07;1.83;;;;;;;10.76;100.00;99415.41;6239175;28;20227;-73
2023/10/27 05:05:55;;;;;;;1.73;0.90;;;;;;;10.67;100.00;99414.59;6248300;28;20251;-73
2023/10/27 05:09:18;;;;;;;1.10;0.90;;;;;;;10.46;100.00;99411.63;6250027;28;20232;-73
2023/10/27 05:12:39;;;;;;;0.77;0.77;;;;;;;10.52;100.00;99410.94;6249208;28;20228;-73
2023/10/27 05:16:00;;;;;;;2.60;1.27;;;;;;;10.29;100.00;99408.09;6245697;28;20656;-74
2023/10/27 05:19:23;;;;;;;1.60;1.40;;;;;;;10.48;100.00;99409.59;6245399;28;20232;-73
2023/10/27 05:22:44;;;;;;;2.83;1.63;;;;;;;10.55;100.00;99409.75;6247665;28;20617;-74
2023/10/27 05:26:05;;;;;;;1.80;1.70;;;;;;;10.49;100.00;99407.75;6235839;28;20244;-72
2023/10/27 05:29:26;;;;;;;1.07;0.97;;;;;;;10.20;100.00;99401.03;6243568;28;20227;-73
2023/10/27 05:32:47;;;;;;;1.33;1.20;;;;;;;10.25;100.00;99409.47;6245310;28;20256;-73
2023/10/27 05:36:09;;;;;;;1.37;1.27;;;;;;;10.20;100.00;99405.59;6245480;28;20236;-69
2023/10/27 05:39:30;;;;;;;1.43;1.03;;;;;;;10.11;100.00;99414.69;6247904;28;20251;-69
2023/10/27 05:42:51;;;;;;;2.30;1.20;;;;;;;10.08;100.00;99409.59;6243772;28;20523;-72
2023/10/27 05:46:13;;;;;;;1.40;1.30;;;;;;;10.00;100.00;99415.84;6240572;28;20243;-71
2023/10/27 05:49:34;;;;;;;1.50;1.33;;;;;;;10.03;100.00;99415.50;6249831;28;20239;-71
2023/10/27 05:52:56;;;;;;;1.43;1.20;;;;;;;10.05;100.00;99409.94;6233308;28;20606;-71
2023/10/27 05:56:17;;;;;;;2.67;1.97;;;;;;;10.06;100.00;99408.94;6247599;28;20244;-70
2023/10/27 05:59:38;;;;;;;2.13;1.83;;;;;;;10.08;100.00;99406.91;6255114;28;20228;-70
2023/10/27 06:02:59;;;;;;;1.77;1.30;;;;;;;10.04;100.00;99409.09;6249711;28;20540;-69
2023/10/27 06:06:20;;;;;;;1.27;1.07;;;;;;;9.97;100.00;99408.09;6249035;28;20227;-69
2023/10/27 06:09:43;;;;;;;1.33;1.23;;;;;;;9.97;100.00;99405.38;6249929;28;20228;-70
2023/10/27 06:13:03;;;;;;;1.27;1.03;;;;;;;10.04;100.00;99409.09;6251689;28;20224;-70
2023/10/27 06:16:25;;;;;;;1.93;1.30;;;;;;;9.95;100.00;99406.59;6245677;28;20240;-70
2023/10/27 06:19:45;;;;;;;3.07;2.53;;;;;;;9.91;100.00;99413.31;6245545;28;20816;-69
2023/10/27 06:23:06;;;;;;;1.77;1.63;;;;;;;9.88;100.00;99410.97;6250313;28;20236;-70
2023/10/27 06:26:29;;;;;;;1.90;1.47;;;;;;;9.95;100.00;99417.38;6251327;28;20232;-70
2023/10/27 06:29:50;;;;;;;2.33;2.03;;;;;;;10.00;100.00;99415.84;6249908;28;20227;-70
2023/10/27 06:33:11;;;;;;;2.57;1.50;;;;;;;10.00;100.00;99421.22;6248101;28;20235;-70
2023/10/27 06:36:32;;;;;;;1.83;1.60;;;;;;;10.05;100.00;99418.03;6248412;28;20228;-70
2023/10/27 06:39:58;;;;;;;1.50;1.40;;;;;;;10.08;100.00;99420.38;6245643;28;20236;-69
2023/10/27 06:43:20;;;;;;;2.03;1.83;;;;;;;9.96;100.00;99419.03;6245280;28;20582;-69
2023/10/27 06:46:41;;;;;;;2.17;1.57;;;;;;;9.99;100.00;99418.72;6247318;28;20274;-69
2023/10/27 06:50:03;;;;;;;3.50;1.80;;;;;;;9.95;100.00;99418.19;6250914;28;20224;-70
2023/10/27 06:53:24;;;;;;;2.07;1.87;;;;;;;10.05;100.00;99420.72;6253839;28;20232;-70
2023/10/27 06:56:45;;;;;;;2.70;1.50;;;;;;;9.95;100.00;99420.88;6248461;28;20527;-69
2023/10/27 07:00:09;;;;;;;5.20;1.77;;;;;;;10.03;100.00;99422.75;6248771;28;20918;-72
2023/10/27 07:03:30;;;;;;;1.87;1.60;;;;;;;10.04;100.00;99416.34;6254290;28;20873;-67
2023/10/27 07:06:51;;;;;;;3.27;2.10;;;;;;;10.04;100.00;99422.56;6248320;28;20247;-68
2023/10/27 07:10:12;;;;;;;12.77;1.60;;;;;;;9.93;100.00;99422.06;6250962;28;20526;-69
2023/10/27 07:13:33;;;;;;;3.83;1.70;;;;;;;10.03;100.00;99418.22;6258351;28;20314;-69
2023/10/27 07:16:56;;;;;;;1.97;1.77;;;;;;;10.02;100.00;99419.19;6250915;28;20259;-68
2023/10/27 07:20:17;;;;;;;2.60;2.13;;;;;;;10.12;100.00;99421.75;6254861;28;20229;-68
2023/10/27 07:23:38;;;;;;;2.07;1.80;;;;;;;9.94;100.00;99421.03;6255971;28;20239;-68
2023/10/27 07:26:59;;;;;;;2.70;2.43;;;;;;;10.02;100.00;99424.59;6253707;28;20231;-68
2023/10/27 07:30:20;;;;;;;1.93;1.53;;;;;;;10.11;100.00;99418.22;6250603;28;20244;-70
2023/10/27 07:33:43;;;;;;;2.27;1.73;;;;;;;10.04;100.00;99421.72;6249150;28;20247;-68
2023/10/27 07:37:05;;;;;;;1.40;1.30;;;;;;;10.06;100.00;99423.22;6249498;28;20227;-69
2023/10/27 07:40:26;;;;;;;3.77;2.17;;;;;;;10.06;100.00;99417.00;6253810;28;20224;-68
2023/10/27 07:43:46;;;;;;;2.77;2.23;;;;;;;10.10;100.00;99423.72;6252133;28;20232;-68
2023/10/27 07:47:07;;;;;;;1.60;1.50;;;;;;;10.19;100.00;99425.44;6247193;28;20601;-69
2023/10/27 07:50:29;;;;;;;1.97;1.40;;;;;;;10.09;100.00;99411.28;6253012;28;20251;-68
2023/10/27 07:53:50;;;;;;;1.67;1.23;;;;;;;10.12;100.00;99422.59;6254236;28;20347;-70
2023/10/27 07:57:11;;;;;;;1.27;1.17;;;;;;;10.18;100.00;99418.41;6249067;28;20228;-70
2023/10/27 08:00:32;;;;;;;1.60;1.20;;;;;;;10.21;100.00;99418.03;6246715;28;20539;-70
2023/10/27 08:03:53;;;;;;;1.90;1.20;;;;;;;10.25;100.00;99419.38;6245298;28;20856;-69
2023/10/27 08:07:15;;;;;;;1.50;1.40;;;;;;;10.15;100.00;99411.50;6253646;28;20240;-70
2023/10/27 08:10:38;;;;;;;1.17;1.07;;;;;;;10.08;100.00;99423.06;6246356;28;20232;-70
2023/10/27 08:13:59;;;;;;;2.97;1.73;;;;;;;10.20;100.00;99413.69;6251137;28;20252;-69
2023/10/27 08:17:20;;;;;;;1.90;1.73;;;;;;;10.23;100.00;99427.66;6250045;28;20501;-69
2023/10/27 08:20:41;;;;;;;1.93;1.83;;;;;;;10.27;100.00;99415.53;6257305;28;20545;-69
2023/10/27 08:24:03;;;;;;;1.40;1.30;;;;;;;10.43;100.00;99428.09;6252050;28;20239;-69
2023/10/27 08:27:24;;;;;;;1.77;1.67;;;;;;;10.31;100.00;99416.84;6244898;28;20283;-69
2023/10/27 08:30:46;;;;;;;1.40;1.30;;;;;;;10.35;100.00;99417.34;6248958;28;20231;-70
2023/10/27 08:34:10;;;;;;;1.93;1.73;;;;;;;10.35;100.00;99428.13;6244337;28;20240;-70
2023/10/27 08:37:31;;;;;;;1.50;1.30;;;;;;;10.46;100.00;99433.16;6251271;28;20523;-70
2023/10/27 08:40:54;;;;;;;1.73;1.30;;;;;;;10.58;100.00;99429.09;6249038;28;20263;-69
2023/10/27 08:44:16;;;;;;;1.50;1.40;;;;;;;10.65;100.00;99437.34;6245118;28;20328;-69
2023/10/27 08:47:37;;;;;;;1.30;1.07;;;;;;;10.64;100.00;99431.09;6251587;28;20410;-70
2023/10/27 08:51:04;;;;;;;1.43;1.20;;;;;;;10.60;100.00;99432.47;6252273;28;20315;-71
2023/10/27 08:54:25;;;;;;;5.17;2.43;;;;;;;10.52;100.00;99432.47;6251297;28;20236;-68
2023/10/27 08:57:47;;;;;;;1.00;1.00;;;;;;;10.53;100.00;99438.72;6251878;28;20503;-68
2023/10/27 09:01:08;;;;;;;1.57;1.47;;;;;;;10.57;100.00;99440.91;6244609;28;20602;-67
2023/10/27 09:04:31;;;;;;;1.13;1.03;;;;;;;10.63;100.00;99434.81;6249634;28;20224;-68
2023/10/27 09:07:51;;;;;;;1.43;1.27;;;;;;;10.61;100.00;99436.84;6253079;28;20232;-68
2023/10/27 09:11:12;;;;;;;1.70;1.00;;;;;;;10.62;100.00;99435.81;6251818;28;20235;-71
2023/10/27 09:14:35;;;;;;;1.23;1.13;;;;;;;10.68;100.00;99437.81;6250414;28;20351;-69
2023/10/27 09:17:58;;;;;;;1.33;1.13;;;;;;;10.61;100.00;99434.16;6250294;28;20231;-70
2023/10/27 09:21:30;;;;;;;1.87;1.07;;;;;;;10.70;100.00;99435.78;6256141;28;20236;-68
2023/10/27 09:24:51;;;;;;;1.30;1.17;;;;;;;10.70;100.00;99433.09;6242771;28;20248;-70
2023/10/27 09:28:12;;;;;;;1.30;1.20;;;;;;;10.77;100.00;99435.97;6240603;28;21032;-69
2023/10/27 09:31:35;;;;;;;1.43;0.80;;;;;;;10.80;100.00;99444.56;6252990;28;20247;-70
2023/10/27 09:35:10;;;;;;;1.20;1.10;;;;;;;10.83;100.00;99438.81;6242630;28;20605;-70
2023/10/27 09:38:31;;;;;;;2.03;1.10;;;;;;;10.77;100.00;99447.59;6251309;28;20270;-70
2023/10/27 09:41:58;;;;;;;1.03;1.03;;;;;;;10.74;100.00;99444.41;6247847;28;20235;-71
2023/10/27 09:45:22;;;;;;;2.10;1.27;;;;;;;10.75;100.00;99446.91;6247405;28;20272;-71
2023/10/27 09:48:49;;;;;;;1.30;1.03;;;;;;;10.68;100.00;99448.59;6250560;28;22664;-71
2023/10/27 09:52:11;;;;;;;1.17;1.17;;;;;;;10.64;100.00;99446.44;6247061;28;20696;-67
2023/10/27 09:55:32;;;;;;;1.40;1.30;;;;;;;10.66;100.00;99453.31;6251543;28;20228;-70
2023/10/27 09:58:53;;;;;;;8.87;2.03;;;;;;;10.57;100.00;99448.13;6245320;28;20259;-70
2023/10/27 10:02:15;;;;;;;1.03;0.90;;;;;;;10.59;100.00;99452.34;6252312;28;20240;-70
2023/10/27 10:06:09;;;;;;;1.57;1.47;;;;;;;10.56;100.00;99449.13;6248362;28;20235;-71
2023/10/27 10:09:42;;;;;;;0.83;0.83;;;;;;;10.62;100.00;99452.00;6239713;28;20242;-68
2023/10/27 10:13:12;;;;;;;1.50;1.40;;;;;;;10.56;100.00;99449.97;6241828;28;20269;-69
2023/10/27 10:16:45;;;;;;;1.60;1.37;;;;;;;10.57;100.00;99450.84;6241728;28;20224;-68
2023/10/27 10:20:07;;;;;;;1.47;0.97;;;;;;;10.60;100.00;99440.53;6251353;28;20236;-70
2023/10/27 10:24:07;;;;;;;1.33;1.23;;;;;;;10.64;100.00;99436.50;6235882;28;20215;-70
2023/10/27 10:27:29;;;;;;;2.57;1.57;;;;;;;10.69;100.00;99439.53;6250217;28;20638;-69
2023/10/27 10:31:23;;;;;;;3.27;1.20;;;;;;;10.75;100.00;99441.53;6254626;28;20239;-69
2023/10/27 10:35:22;;;;;;;1.90;1.50;;;;;;;10.89;100.00;99435.41;6250460;28;20974;-68
2023/10/27 10:38:44;;;;;;;1.77;1.60;;;;;;;10.84;100.00;99437.81;6257045;28;20614;-69
2023/10/27 10:42:05;;;;;;;1.30;1.20;;;;;;;10.98;100.00;99437.06;6250313;28;20645;-68
2023/10/27 10:45:27;;;;;;;2.43;1.30;;;;;;;10.97;100.00;99429.16;6252985;28;20235;-68
2023/10/27 10:48:49;;;;;;;1.57;1.37;;;;;;;10.99;100.00;99435.22;6254600;28;21727;-67
2023/10/27 10:52:09;;;;;;;3.10;1.43;;;;;;;11.00;100.00;99437.75;6252513;28;20224;-69
2023/10/27 10:55:31;;;;;;;1.70;1.50;;;;;;;11.02;100.00;99430.31;6250883;28;20236;-69
2023/10/27 10:58:51;;;;;;;1.10;0.90;;;;;;;10.99;100.00;99429.84;6250822;28;20228;-70
2023/10/27 11:02:21;;;;;;;1.97;1.60;;;;;;;10.93;100.00;99422.44;6248926;28;20224;-67
2023/10/27 11:05:42;;;;;;;1.73;1.57;;;;;;;10.86;100.00;99433.09;6251699;28;20510;-69
2023/10/27 11:09:04;;;;;;;1.70;1.60;;;;;;;10.91;100.00;99416.38;6249464;28;20567;-69
2023/10/27 11:12:26;;;;;;;8.03;2.70;;;;;;;10.80;100.00;99423.00;6249396;28;20498;-70
2023/10/27 11:15:49;;;;;;;1.80;1.70;;;;;;;10.94;100.00;99418.72;6248268;28;20232;-69
2023/10/27 11:19:16;;;;;;;2.20;1.97;;;;;;;11.00;100.00;99415.31;6256101;28;20346;-69
2023/10/27 11:22:37;;;;;;;2.70;2.07;;;;;;;10.91;100.00;99422.59;6253854;28;20629;-69
2023/10/27 11:26:03;;;;;;;1.50;1.40;;;;;;;11.68;100.00;99420.91;6245994;28;20228;-70
2023/10/27 11:29:24;;;;;;;2.43;2.27;;;;;;;11.82;100.00;99417.44;6232580;28;20240;-70
2023/10/27 11:33:05;;;;;;;1.80;1.70;;;;;;;11.43;100.00;99416.66;6247937;28;20299;-70
2023/10/27 11:36:28;;;;;;;2.83;2.57;;;;;;;11.37;100.00;99414.66;6249285;28;20223;-69
2023/10/27 11:39:50;;;;;;;1.77;1.67;;;;;;;11.20;100.00;99414.72;6256063;28;20326;-71
2023/10/27 11:43:10;;;;;;;2.17;1.63;;;;;;;11.20;100.00;99405.81;6250796;28;20260;-70
2023/10/27 11:46:31;;;;;;;2.67;2.17;;;;;;;11.19;100.00;99409.50;6260034;28;20277;-70
2023/10/27 11:49:52;;;;;;;2.07;1.87;;;;;;;11.13;100.00;99408.38;6255209;28;20287;-71
2023/10/27 11:53:15;;;;;;;2.53;2.33;;;;;;;11.17;100.00;99408.84;6252167;28;20228;-70
2023/10/27 11:56:37;;;;;;;2.40;2.20;;;;;;;11.26;100.00;99414.00;6246145;28;20232;-70
2023/10/27 11:59:58;;;;;;;2.17;1.97;;;;;;;11.27;100.00;99420.25;6242603;28;20303;-70
2023/10/27 12:03:19;;;;;;;2.90;1.77;;;;;;;11.18;100.00;99411.34;6245857;28;20787;-69
2023/10/27 12:06:40;;;;;;;1.70;1.60;;;;;;;11.29;100.00;99418.22;6252754;28;20358;-69
2023/10/27 12:10:02;;;;;;;3.07;2.53;;;;;;;11.28;100.00;99416.56;6253335;28;20228;-69
2023/10/27 12:13:25;;;;;;;2.30;2.10;;;;;;;11.24;100.00;99409.84;6254922;28;20232;-68
2023/10/27 12:16:45;;;;;;;2.77;2.27;;;;;;;11.22;100.00;99412.69;6251718;28;20231;-69
2023/10/27 12:20:07;;;;;;;2.13;1.97;;;;;;;11.19;100.00;99413.06;6251600;28;20228;-69
2023/10/27 12:23:30;;;;;;;2.30;1.90;;;;;;;11.05;100.00;99418.34;6253767;28;20605;-68
2023/10/27 12:26:54;;;;;;;3.63;2.37;;;;;;;11.07;100.00;99425.25;6255099;28;20579;-69
2023/10/27 12:30:17;;;;;;;2.20;1.90;;;;;;;10.94;100.00;99422.25;6254127;28;20243;-69
2023/10/27 12:33:37;;;;;;;2.83;2.60;;;;;;;10.92;100.00;99428.84;6251526;28;20260;-68
2023/10/27 12:36:59;;;;;;;4.53;4.13;;;;;;;10.98;100.00;99429.00;6254844;28;20291;-69
2023/10/27 12:40:20;;;;;;;5.00;2.97;;;;;;;11.03;100.00;99420.38;6256047;28;20227;-69
2023/10/27 12:43:42;;;;;;;7.33;5.27;;;;;;;11.06;100.00;99426.25;6256176;28;20231;-69
2023/10/27 12:47:03;;;;;;;3.50;3.20;;;;;;;11.06;100.00;99420.88;6257902;28;20239;-69
2023/10/27 12:50:24;;;;;;;3.53;2.93;;;;;;;11.15;100.00;99419.81;6253060;28;20228;-69
2023/10/27 12:53:45;;;;;;;2.50;2.30;;;;;;;11.17;100.00;99416.94;6240230;28;20250;-69
2023/10/27 12:57:08;;;;;;;3.40;2.60;;;;;;;11.19;100.00;99417.59;6253853;28;20746;-69
2023/10/27 13:00:34;;;;;;;3.07;2.77;;;;;;;11.15;100.00;99418.97;6248734;28;20645;-69
2023/10/27 13:03:55;;;;;;;3.90;2.00;;;;;;;11.16;100.00;99420.63;6254353;28;20734;-69
2023/10/27 13:07:16;;;;;;;3.80;2.33;;;;;;;11.11;100.00;99420.34;6254476;28;20240;-69
2023/10/27 13:10:37;;;;;;;3.40;3.00;;;;;;;11.03;100.00;99412.28;6248076;28;20342;-69
2023/10/27 13:13:58;;;;;;;3.43;3.13;;;;;;;11.17;100.00;99416.94;6248906;28;20266;-69
2023/10/27 13:17:20;;;;;;;7.73;5.43;;;;;;;11.30;100.00;99413.66;6251489;28;20601;-69
2023/10/27 13:20:41;;;;;;;10.43;8.97;;;;;;;11.26;100.00;99405.91;6249876;28;20228;-69
2023/10/27 13:24:03;;;;;;;9.50;7.57;;;;;;;11.20;100.00;99408.50;6250550;28;20228;-68
2023/10/27 13:27:24;;;;;;;3.03;2.73;;;;;;;11.22;100.00;99403.78;6253611;28;20566;-76
2023/10/27 13:30:46;;;;;;;15.83;13.30;;;;;;;11.38;100.00;99419.88;6244340;28;20232;-76
2023/10/27 13:34:09;;;;;;;7.43;6.50;;;;;;;11.26;100.00;99411.31;6249311;28;20229;-71
2023/10/27 13:37:31;;;;;;;8.23;4.93;;;;;;;11.19;100.00;99417.59;6248318;28;20232;-72
2023/10/27 13:40:52;;;;;;;14.37;11.63;;;;;;;11.26;100.00;99419.41;6252662;28;20233;-71
2023/10/27 13:44:14;;;;;;;13.30;11.13;;;;;;;11.18;100.00;99421.34;6253968;28;20223;-70
2023/10/27 13:47:37;;;;;;;9.13;7.37;;;;;;;11.08;100.00;99416.13;6243884;28;20772;-71
2023/10/27 13:51:07;;;;;;;5.97;5.37;;;;;;;11.03;100.00;99415.00;6251012;28;20239;-71
2023/10/27 13:54:28;;;;;;;9.77;8.77;;;;;;;11.03;100.00;99423.94;6251914;28;20235;-70
2023/10/27 13:57:48;;;;;;;12.13;10.90;;;;;;;11.10;100.00;99422.19;6256073;28;20649;-70
2023/10/27 14:01:09;;;;;;;7.50;5.40;;;;;;;10.89;100.00;99424.63;6253992;28;20260;-70
2023/10/27 14:04:30;;;;;;;6.03;3.67;;;;;;;10.87;100.00;99432.06;6239527;28;20247;-70
2023/10/27 14:07:52;;;;;;;6.50;5.33;;;;;;;10.90;100.00;99426.31;6255121;28;20323;-70
2023/10/27 14:11:14;;;;;;;6.30;4.43;;;;;;;10.85;100.00;99428.69;6254138;28;20232;-71
2023/10/27 14:14:35;;;;;;;7.17;5.83;;;;;;;10.86;100.00;99432.22;6252924;28;20224;-70
2023/10/27 14:17:56;;;;;;;4.93;3.80;;;;;;;10.94;100.00;99433.06;6249499;28;20611;-70
2023/10/27 14:21:17;;;;;;;2.27;2.07;;;;;;;10.87;100.00;99432.06;6254479;28;20233;-70
2023/10/27 14:24:39;;;;;;;5.17;4.67;;;;;;;10.88;100.00;99427.50;6254258;28;20219;-71
2023/10/27 14:28:00;;;;;;;3.97;3.50;;;;;;;10.83;100.00;99427.16;6257500;28;20327;-70
2023/10/27 14:31:21;;;;;;;4.17;3.80;;;;;;;10.78;100.00;99429.56;6257601;28;20251;-71
2023/10/27 14:34:42;;;;;;;3.60;2.53;;;;;;;10.81;100.00;99421.97;6252799;28;20232;-71
2023/10/27 14:38:02;;;;;;;2.77;2.57;;;;;;;10.84;100.00;99424.31;6250165;28;20221;-70
2023/10/27 14:41:25;;;;;;;3.40;2.73;;;;;;;10.85;100.00;99431.38;6251562;28;20227;-70
2023/10/27 14:44:46;;;;;;;3.77;3.23;;;;;;;10.75;100.00;99432.59;6252171;28;20235;-70
2023/10/27 14:48:07;;;;;;;7.67;6.53;;;;;;;10.79;100.00;99425.84;6245763;28;20358;-70
2023/10/27 14:51:28;;;;;;;14.03;9.77;;;;;;;10.87;100.00;99437.44;6240310;28;20244;-69
2023/10/27 14:54:48;;;;;;;10.87;7.73;;;;;;;10.89;100.00;99437.28;6256491;28;20229;-70
2023/10/27 14:58:11;;;;;;;7.40;5.07;;;;;;;10.83;100.00;99436.09;6248553;28;20232;-69
2023/10/27 15:01:32;;;;;;;5.80;5.30;;;;;;;10.70;100.00;99432.28;6246657;28;20236;-68
2023/10/27 15:04:54;;;;;;;7.80;6.50;;;;;;;10.72;100.00;99436.47;6249447;28;20241;-69
2023/10/27 15:08:15;;;;;;;8.07;7.27;;;;;;;10.77;100.00;99434.09;6252244;28;20228;-70
2023/10/27 15:11:36;;;;;;;10.47;6.77;;;;;;;10.70;100.00;99430.41;6257026;28;20220;-69
2023/10/27 15:14:58;;;;;;;4.30;2.87;;;;;;;10.58;100.00;99434.50;6250965;28;20228;-68
2023/10/27 15:18:19;;;;;;;3.57;2.83;;;;;;;10.60;100.00;99437.84;6251956;28;20235;-70
2023/10/27 15:21:40;;;;;;;3.87;3.17;;;;;;;10.65;100.00;99440.88;6250117;28;20249;-67
2023/10/27 15:25:01;;;;;;;3.37;3.07;;;;;;;10.65;100.00;99438.19;6249769;28;20224;-69
2023/10/27 15:28:22;;;;;;;4.67;3.50;;;;;;;10.67;100.00;99440.69;6249840;28;20253;-69
2023/10/27 15:31:45;;;;;;;15.93;14.23;;;;;;;10.71;100.00;99442.03;6250053;28;20231;-69
2023/10/27 15:35:06;;;;;;;9.27;6.50;;;;;;;10.59;100.00;99435.34;6249817;28;20227;-71
2023/10/27 15:38:27;;;;;;;11.80;7.40;;;;;;;10.68;100.00;99437.00;6249925;28;20310;-73